Terminal Aerodrome Forecast
Issued by NWS Albany, NY

Current Version | Previous Version | Text Only | Print | Product List | Glossary On
Versions: 1 2 3 4 5 6 7 8 9 10 11 12 13 14 15 16
000 FTUS41 KALY 202300 TAFALB TAF KALB 202325Z 2100/2124 18006KT P6SM SCT250 FM211200 18006KT P6SM SCT150 SCT250 FM211800 18010KT P6SM BKN120 BKN200=

USA.gov is the U.S. government's official web portal to all federal, state and local government web resources and services.